aviador You're here:

CYVO Decoded Metar

VAL D'OR in QC, CANADA
Report Time2017-12-11 00:00:00
UTC Time2017-12-11 00:29:36
Flight Rules vfr VFR
Wind300° at 05 kt
W.Decomp.*RWY 36: 3.5 kt HW 3.6 kt LCW
W.Rank300° ranks 13
Current wind is below 300° avg. (6.3)
Visibility9999 m
Phenomena:Light Snow
Clouds:Overcast 035 Hf
Expected CloudBase > 800 ft AGL from Temp-Dew spread
Ceiling3,500 ft
Temp-17°C (ISA -30)
Dew Point-19°C (85% RH)
AAT-22.3°C
QNH1008 hPa
Density Alt-2,474 ft
Elevation1,106 ft
Report Wrong Elevation
Raw Report
CYVO 110000Z 30005KT 15SM -SN OVC035 M17/M19 A2978 RMK SC8
SLP125=

Extra information for CYVO:More info

Metar Taf Metar & Taf Last 4 Metars F.Rules Stats Wind Profile Meteogram Temp Stats Airport Information Weather charts Add Link Nearby VenuesMetar ALERT Operation Metar Decoded Social comments